Irving Johnson — WDB3153 — position and weather

sailwx.info

Track history (hours):
 
Tides and Currents Weather Stations Pressure Air Temp Water Temp Dewpoint Dewpoint Depression Visibility Wind Speed Wind Dir Waves Ship Positions

Irving Johnson (United States)

Ship's website: http://www.lamitopsail.org/

Owner: Los Angeles Maritime Institute, San Pedro, CA. More information available from US FCC via Universal Licensing System and Coast Guard Vessel Documentation Center.

Last reported at 2018-Feb-25 01:42 UTC. Time now 2018-Feb-25 06:14 UTC.
Position N 33°44' W 118°17'.

; draft 4 m.

Type: Sailing vessel. MMSI: 369725000.

Date/timePositionNaut miles runAvg speedWind from/ knotsBaromVisibWave heightAir tempDewpointWater temp
2018-Feb-25 01:42N 33°44' W 118°17'0 0.0
2018-Feb-25 01:18N 33°44' W 118°17'0 0.0
2018-Feb-25 00:44N 33°44' W 118°17'0 0.0
2018-Feb-25 00:21N 33°44' W 118°17'0 0.0
2018-Feb-25 00:00N 33°44' W 118°17'2 3.1
2018-Feb-24 23:31N 33°43' W 118°16'1 2.1
2018-Feb-24 22:56N 33°42' W 118°15'1 3.1
2018-Feb-24 22:29N 33°43' W 118°16'1 1.0
2018-Feb-24 21:11N 33°44' W 118°17'0 0.0
2018-Feb-24 20:56N 33°44' W 118°17'0 0.0
2018-Feb-24 20:20N 33°44' W 118°17'0 0.0
2018-Feb-24 20:00N 33°44' W 118°17'0 0.4
2018-Feb-24 19:24N 33°44' W 118°16'2 1.7
2018-Feb-24 18:16N 33°42' W 118°16'1 2.1
2018-Feb-24 17:59N 33°42' W 118°16'1 2.1
2018-Feb-24 17:30N 33°43' W 118°16'1 1.7
2018-Feb-24 16:54N 33°44' W 118°17'0 0.0
2018-Feb-24 16:20N 33°44' W 118°17'0 0.0
2018-Feb-24 16:00N 33°44' W 118°17'0 0.0
2018-Feb-24 15:26N 33°44' W 118°17'0 0.0
2018-Feb-24 14:46N 33°44' W 118°17'0 0.0
2018-Feb-24 02:33N 33°44' W 118°17'0 0.0
2018-Feb-24 02:11N 33°44' W 118°17'0 0.0
2018-Feb-24 01:53N 33°44' W 118°17'0 0.0
2018-Feb-24 01:28N 33°44' W 118°17'0 0.0
2018-Feb-24 00:56N 33°44' W 118°17'0 0.0
2018-Feb-24 00:26N 33°44' W 118°17'0 0.0
2018-Feb-24 00:00N 33°44' W 118°17'0 0.0
2018-Feb-23 23:30N 33°44' W 118°17'0 0.0
2018-Feb-23 22:59N 33°44' W 118°17'0 0.0
2018-Feb-23 22:30N 33°44' W 118°17'0 0.0
2018-Feb-23 22:00N 33°44' W 118°17'0 0.0
2018-Feb-23 21:30N 33°44' W 118°17'0 0.3
2018-Feb-23 21:00N 33°44' W 118°16'1 2.7
2018-Feb-23 20:30N 33°43' W 118°15'3 3.2
2018-Feb-23 19:41N 33°40' W 118°16'1 5.4
2018-Feb-23 19:29N 33°41' W 118°16'2 3.2
2018-Feb-23 19:00N 33°43' W 118°15'1 2.6
2018-Feb-23 18:30N 33°44' W 118°16'0 0.3
2018-Feb-23 17:59N 33°44' W 118°17'0 0.0
2018-Feb-23 17:29N 33°44' W 118°17'0 0.0
2018-Feb-23 16:59N 33°44' W 118°17'0 0.0
2018-Feb-23 16:29N 33°44' W 118°17'0 0.0
2018-Feb-23 16:00N 33°44' W 118°17'0 0.0
2018-Feb-23 15:26N 33°44' W 118°17'0 0.0
2018-Feb-23 14:59N 33°44' W 118°17'0 0.0
2018-Feb-23 14:29N 33°44' W 118°17'0 0.0
2018-Feb-23 13:36N 33°44' W 118°17'0 0.0
2018-Feb-23 13:29N 33°44' W 118°17'0 0.0
2018-Feb-23 12:47N 33°44' W 118°17'0 0.0
2018-Feb-23 10:48N 33°44' W 118°17'0 0.0
2018-Feb-23 10:22N 33°44' W 118°17'0 0.0
2018-Feb-23 09:57N 33°44' W 118°17'0 0.0
2018-Feb-23 09:10N 33°44' W 118°17'0 0.0
2018-Feb-23 08:56N 33°44' W 118°17'0 0.0
2018-Feb-23 08:13N 33°44' W 118°17'0 0.0
2018-Feb-23 07:36N 33°44' W 118°17'0 0.0
2018-Feb-23 07:18N 33°44' W 118°17'0 0.0
2018-Feb-23 06:07N 33°44' W 118°17'0 0.0
2018-Feb-23 05:58N 33°44' W 118°17'0 0.0
2018-Feb-23 01:50N 33°44' W 118°17'0 0.0
2018-Feb-23 01:27N 33°44' W 118°17'0 0.0
2018-Feb-23 00:55N 33°44' W 118°17'0 0.0
2018-Feb-23 00:30N 33°44' W 118°17'0 0.0
2018-Feb-22 23:59N 33°44' W 118°17'0 0.0
2018-Feb-22 23:28N 33°44' W 118°17'0 0.0
2018-Feb-22 22:59N 33°44' W 118°17'0 0.0
2018-Feb-22 22:28N 33°44' W 118°17'0 0.0
2018-Feb-22 22:00N 33°44' W 118°17'0 0.0
2018-Feb-22 21:29N 33°44' W 118°17'0 0.2
2018-Feb-22 21:00N 33°44' W 118°16'1 2.6
2018-Feb-22 20:30N 33°43' W 118°16'1 2.7
2018-Feb-22 20:00N 33°42' W 118°15'0 0.5
2018-Feb-22 19:30N 33°41' W 118°15'1 2.8
2018-Feb-22 19:00N 33°43' W 118°15'1 2.0
2018-Feb-22 18:30N 33°43' W 118°16'1 1.0
2018-Feb-22 17:58N 33°44' W 118°17'0 0.0
2018-Feb-22 17:28N 33°44' W 118°17'0 0.0
2018-Feb-22 16:46N 33°44' W 118°17'0 0.0
2018-Feb-22 16:29N 33°44' W 118°17'0 0.0
2018-Feb-22 15:59N 33°44' W 118°17'0 0.0
2018-Feb-22 15:26N 33°44' W 118°17'0 0.0
2018-Feb-22 15:00N 33°44' W 118°17'0 0.0
2018-Feb-22 01:57N 33°44' W 118°17'0 0.0
2018-Feb-22 01:29N 33°44' W 118°17'0 0.0
2018-Feb-22 00:59N 33°44' W 118°17'0 0.0
2018-Feb-22 00:28N 33°44' W 118°17'0 0.0
2018-Feb-21 23:55N 33°44' W 118°17'0 0.0
2018-Feb-21 23:28N 33°44' W 118°17'0 0.0
2018-Feb-21 22:56N 33°44' W 118°17'0 0.0
2018-Feb-21 22:24N 33°44' W 118°17'0 0.0
2018-Feb-21 21:59N 33°44' W 118°17'0 0.0
2018-Feb-21 21:26N 33°44' W 118°17'0 0.0
2018-Feb-21 20:50N 33°44' W 118°17'0 0.0
2018-Feb-21 20:29N 33°44' W 118°17'0 0.0
2018-Feb-21 20:00N 33°44' W 118°17'0 0.0
2018-Feb-21 19:30N 33°44' W 118°17'0 0.0
2018-Feb-21 18:58N 33°44' W 118°17'0 0.0
2018-Feb-21 18:26N 33°44' W 118°17'0 0.0
2018-Feb-21 17:59N 33°44' W 118°17'0 0.0
2018-Feb-21 17:22N 33°44' W 118°17'0 0.0
2018-Feb-21 17:00N 33°44' W 118°17'0 0.0
2018-Feb-21 16:29N 33°44' W 118°17'0 0.0
2018-Feb-21 15:58N 33°44' W 118°17'0 0.0
2018-Feb-21 15:30N 33°44' W 118°17'0 0.0
2018-Feb-21 14:58N 33°44' W 118°17'0 0.0
2018-Feb-21 14:29N 33°44' W 118°17'0 0.0
2018-Feb-21 01:50N 33°44' W 118°17'0 0.0
2018-Feb-21 01:30N 33°44' W 118°17'0 0.0
2018-Feb-21 00:57N 33°44' W 118°17'0 0.0
2018-Feb-21 00:29N 33°44' W 118°17'0 0.0
2018-Feb-20 23:59N 33°44' W 118°17'0 0.0
2018-Feb-20 23:26N 33°44' W 118°17'0 0.0
2018-Feb-20 22:58N 33°44' W 118°17'0 0.0
2018-Feb-20 22:29N 33°44' W 118°17'0 0.0
2018-Feb-20 22:00N 33°44' W 118°17'0 0.0
2018-Feb-20 21:28N 33°44' W 118°17'0 0.0
2018-Feb-20 20:40N 33°44' W 118°17'0 0.0
2018-Feb-20 20:30N 33°44' W 118°17'0 0.0
2018-Feb-20 20:00N 33°44' W 118°17'0 0.0
2018-Feb-20 19:25N 33°44' W 118°17'0 0.0
2018-Feb-20 18:50N 33°44' W 118°17'0 0.0
2018-Feb-20 18:28N 33°44' W 118°17'0 0.0
2018-Feb-20 17:54N 33°44' W 118°17'0 0.0
2018-Feb-20 17:28N 33°44' W 118°17'0 0.0
2018-Feb-20 16:58N 33°44' W 118°17'0 0.0
2018-Feb-20 16:29N 33°44' W 118°17'0 0.0
2018-Feb-20 15:59N 33°44' W 118°17'0 0.0
2018-Feb-20 15:30N 33°44' W 118°17'0 0.0
2018-Feb-20 14:57N 33°44' W 118°17'0 0.0
2018-Feb-20 14:30N 33°44' W 118°17'0 0.0
2018-Feb-20 01:48N 33°44' W 118°17'0 0.0
2018-Feb-20 01:25N 33°44' W 118°17'0 0.0
2018-Feb-20 00:56N 33°44' W 118°17'0 0.0
2018-Feb-20 00:30N 33°44' W 118°17'0 0.0
2018-Feb-19 23:59N 33°44' W 118°17'0 0.0
2018-Feb-19 23:28N 33°44' W 118°17'0 0.0
2018-Feb-19 22:59N 33°44' W 118°17'0 0.0
2018-Feb-19 22:30N 33°44' W 118°17'0 0.0
2018-Feb-19 22:00N 33°44' W 118°17'0 0.0
2018-Feb-19 21:30N 33°44' W 118°17'0 0.0
2018-Feb-19 21:00N 33°44' W 118°17'0 0.0
2018-Feb-19 20:30N 33°44' W 118°17'1 1.6
2018-Feb-19 20:00N 33°43' W 118°16'2 4.5
2018-Feb-19 19:30N 33°44' W 118°13'1 2.6
2018-Feb-19 19:00N 33°44' W 118°12'2 3.9
2018-Feb-19 18:30N 33°45' W 118°10'0 0.5
2018-Feb-19 17:36N 33°45' W 118°10'0 0.0
2018-Feb-19 14:55N 33°45' W 118°10'6 0.2
2018-Feb-18 02:05N 33°43' W 118°16'0 4.6
2018-Feb-18 01:59N 33°44' W 118°16'0 0.6
2018-Feb-18 01:28N 33°44' W 118°17'0 0.0
2018-Feb-18 00:58N 33°44' W 118°17'0 0.0
2018-Feb-18 00:25N 33°44' W 118°17'0 0.0
2018-Feb-18 00:00N 33°44' W 118°17'0 0.9
2018-Feb-17 23:30N 33°44' W 118°16'3 5.2
2018-Feb-17 23:00N 33°41' W 118°15'0 0.7
2018-Feb-17 22:30N 33°42' W 118°15'2 3.2
2018-Feb-17 22:00N 33°43' W 118°16'0 0.6
2018-Feb-17 21:30N 33°43' W 118°16'0 0.7
2018-Feb-17 21:00N 33°43' W 118°16'1 1.6
2018-Feb-17 20:30N 33°44' W 118°17'0 0.0
2018-Feb-17 19:58N 33°44' W 118°17'0 0.0
2018-Feb-17 19:28N 33°44' W 118°17'0 0.0
2018-Feb-17 18:56N 33°44' W 118°17'0 0.0
2018-Feb-17 18:30N 33°44' W 118°17'0 0.0
2018-Feb-17 17:57N 33°44' W 118°17'0 0.0
2018-Feb-17 17:27N 33°44' W 118°17'0 0.0
2018-Feb-17 16:58N 33°44' W 118°17'0 0.0
2018-Feb-17 16:29N 33°44' W 118°17'0 0.0
2018-Feb-17 15:58N 33°44' W 118°17'0 0.0
2018-Feb-17 15:26N 33°44' W 118°17'0 0.0
2018-Feb-17 14:35N 33°44' W 118°17'0 0.0
2018-Feb-17 01:47N 33°44' W 118°17'0 0.0
2018-Feb-17 01:26N 33°44' W 118°17'0 0.0
2018-Feb-17 00:59N 33°44' W 118°17'0 0.0
2018-Feb-17 00:24N 33°44' W 118°17'0 0.0
2018-Feb-16 23:58N 33°44' W 118°17'0 0.0
2018-Feb-16 23:25N 33°44' W 118°17'0 0.0
2018-Feb-16 22:54N 33°44' W 118°17'0 0.0
2018-Feb-16 22:30N 33°44' W 118°17'0 0.0
2018-Feb-16 21:58N 33°44' W 118°17'0 0.0
2018-Feb-16 21:30N 33°44' W 118°17'0 0.0
2018-Feb-16 21:00N 33°44' W 118°17'0 0.0
2018-Feb-16 20:30N 33°44' W 118°17'1 1.0
2018-Feb-16 20:00N 33°44' W 118°16'2 4.0
2018-Feb-16 19:30N 33°42' W 118°15'0 0.4
2018-Feb-16 19:00N 33°42' W 118°15'2 4.0
2018-Feb-16 18:31N 33°43' W 118°16'1 1.2
2018-Feb-16 17:57N 33°44' W 118°17'0 0.0
2018-Feb-16 17:29N 33°44' W 118°17'0 0.0
2018-Feb-16 16:59N 33°44' W 118°17'0 0.0
2018-Feb-16 16:25N 33°44' W 118°17'0 0.0
2018-Feb-16 16:00N 33°44' W 118°17'0 0.0
2018-Feb-16 15:29N 33°44' W 118°17'0 0.0
2018-Feb-16 14:55N 33°44' W 118°17'0 0.0
2018-Feb-16 01:46N 33°44' W 118°17'0 0.0
2018-Feb-16 01:28N 33°44' W 118°17'0 0.0
2018-Feb-16 01:00N 33°44' W 118°17'0 0.0
2018-Feb-16 00:29N 33°44' W 118°17'0 0.0
2018-Feb-16 00:00N 33°44' W 118°17'0 0.0
2018-Feb-15 23:28N 33°44' W 118°17'0 0.0
2018-Feb-15 22:58N 33°44' W 118°17'0 0.0
2018-Feb-15 22:26N 33°44' W 118°17'0 0.0
2018-Feb-15 21:58N 33°44' W 118°17'0 0.0
2018-Feb-15 21:27N 33°44' W 118°17'0 0.0
2018-Feb-15 20:58N 33°44' W 118°17'0 0.0
2018-Feb-15 20:30N 33°44' W 118°17'0 0.0
2018-Feb-15 20:00N 33°44' W 118°17'0 0.0
2018-Feb-15 19:29N 33°44' W 118°17'0 0.0
2018-Feb-15 18:58N 33°44' W 118°17'0 0.0
2018-Feb-15 18:28N 33°44' W 118°17'0 0.0
2018-Feb-15 17:55N 33°44' W 118°17'0 0.0
2018-Feb-15 17:29N 33°44' W 118°17'0 0.0
2018-Feb-15 16:53N 33°44' W 118°17'0 0.0
2018-Feb-15 16:28N 33°44' W 118°17'0 0.0
2018-Feb-15 15:54N 33°44' W 118°17'0 0.0
2018-Feb-15 15:26N 33°44' W 118°17'0 0.0
2018-Feb-15 14:56N 33°44' W 118°17'0 0.0
2018-Feb-15 01:45N 33°44' W 118°17'  
Track history (hours):
 
Tides and Currents Weather Stations Pressure Air Temp Water Temp Dewpoint Dewpoint Depression Visibility Wind Speed Wind Dir Waves Ship Positions

Irving Johnson (United States)

Ship's website: http://www.lamitopsail.org/

Owner: Los Angeles Maritime Institute, San Pedro, CA. More information available from US FCC via Universal Licensing System and Coast Guard Vessel Documentation Center.

Last reported at 2018-Feb-25 01:42 UTC. Time now 2018-Feb-25 06:14 UTC.
Position N 33°44' W 118°17'.

; draft 4 m.

Type: Sailing vessel. MMSI: 369725000.

Date/timePositionNaut miles runAvg speedWind from/ knotsBaromVisibWave heightAir tempDewpointWater temp
2018-Feb-25 01:42N 33°44' W 118°17'0 0.0
2018-Feb-25 01:18N 33°44' W 118°17'0 0.0
2018-Feb-25 00:44N 33°44' W 118°17'0 0.0
2018-Feb-25 00:21N 33°44' W 118°17'0 0.0
2018-Feb-25 00:00N 33°44' W 118°17'2 3.1
2018-Feb-24 23:31N 33°43' W 118°16'1 2.1
2018-Feb-24 22:56N 33°42' W 118°15'1 3.1
2018-Feb-24 22:29N 33°43' W 118°16'1 1.0
2018-Feb-24 21:11N 33°44' W 118°17'0 0.0
2018-Feb-24 20:56N 33°44' W 118°17'0 0.0
2018-Feb-24 20:20N 33°44' W 118°17'0 0.0
2018-Feb-24 20:00N 33°44' W 118°17'0 0.4
2018-Feb-24 19:24N 33°44' W 118°16'2 1.7
2018-Feb-24 18:16N 33°42' W 118°16'1 2.1
2018-Feb-24 17:59N 33°42' W 118°16'1 2.1
2018-Feb-24 17:30N 33°43' W 118°16'1 1.7
2018-Feb-24 16:54N 33°44' W 118°17'0 0.0
2018-Feb-24 16:20N 33°44' W 118°17'0 0.0
2018-Feb-24 16:00N 33°44' W 118°17'0 0.0
2018-Feb-24 15:26N 33°44' W 118°17'0 0.0
2018-Feb-24 14:46N 33°44' W 118°17'0 0.0
2018-Feb-24 02:33N 33°44' W 118°17'0 0.0
2018-Feb-24 02:11N 33°44' W 118°17'0 0.0
2018-Feb-24 01:53N 33°44' W 118°17'0 0.0
2018-Feb-24 01:28N 33°44' W 118°17'0 0.0
2018-Feb-24 00:56N 33°44' W 118°17'0 0.0
2018-Feb-24 00:26N 33°44' W 118°17'0 0.0
2018-Feb-24 00:00N 33°44' W 118°17'0 0.0
2018-Feb-23 23:30N 33°44' W 118°17'0 0.0
2018-Feb-23 22:59N 33°44' W 118°17'0 0.0
2018-Feb-23 22:30N 33°44' W 118°17'0 0.0
2018-Feb-23 22:00N 33°44' W 118°17'0 0.0
2018-Feb-23 21:30N 33°44' W 118°17'0 0.3
2018-Feb-23 21:00N 33°44' W 118°16'1 2.7
2018-Feb-23 20:30N 33°43' W 118°15'3 3.2
2018-Feb-23 19:41N 33°40' W 118°16'1 5.4
2018-Feb-23 19:29N 33°41' W 118°16'2 3.2
2018-Feb-23 19:00N 33°43' W 118°15'1 2.6
2018-Feb-23 18:30N 33°44' W 118°16'0 0.3
2018-Feb-23 17:59N 33°44' W 118°17'0 0.0
2018-Feb-23 17:29N 33°44' W 118°17'0 0.0
2018-Feb-23 16:59N 33°44' W 118°17'0 0.0
2018-Feb-23 16:29N 33°44' W 118°17'0 0.0
2018-Feb-23 16:00N 33°44' W 118°17'0 0.0
2018-Feb-23 15:26N 33°44' W 118°17'0 0.0
2018-Feb-23 14:59N 33°44' W 118°17'0 0.0
2018-Feb-23 14:29N 33°44' W 118°17'0 0.0
2018-Feb-23 13:36N 33°44' W 118°17'0 0.0
2018-Feb-23 13:29N 33°44' W 118°17'0 0.0
2018-Feb-23 12:47N 33°44' W 118°17'0 0.0
2018-Feb-23 10:48N 33°44' W 118°17'0 0.0
2018-Feb-23 10:22N 33°44' W 118°17'0 0.0
2018-Feb-23 09:57N 33°44' W 118°17'0 0.0
2018-Feb-23 09:10N 33°44' W 118°17'0 0.0
2018-Feb-23 08:56N 33°44' W 118°17'0 0.0
2018-Feb-23 08:13N 33°44' W 118°17'0 0.0
2018-Feb-23 07:36N 33°44' W 118°17'0 0.0
2018-Feb-23 07:18N 33°44' W 118°17'0 0.0
2018-Feb-23 06:07N 33°44' W 118°17'0 0.0
2018-Feb-23 05:58N 33°44' W 118°17'0 0.0
2018-Feb-23 01:50N 33°44' W 118°17'0 0.0
2018-Feb-23 01:27N 33°44' W 118°17'0 0.0
2018-Feb-23 00:55N 33°44' W 118°17'0 0.0
2018-Feb-23 00:30N 33°44' W 118°17'0 0.0
2018-Feb-22 23:59N 33°44' W 118°17'0 0.0
2018-Feb-22 23:28N 33°44' W 118°17'0 0.0
2018-Feb-22 22:59N 33°44' W 118°17'0 0.0
2018-Feb-22 22:28N 33°44' W 118°17'0 0.0
2018-Feb-22 22:00N 33°44' W 118°17'0 0.0
2018-Feb-22 21:29N 33°44' W 118°17'0 0.2
2018-Feb-22 21:00N 33°44' W 118°16'1 2.6
2018-Feb-22 20:30N 33°43' W 118°16'1 2.7
2018-Feb-22 20:00N 33°42' W 118°15'0 0.5
2018-Feb-22 19:30N 33°41' W 118°15'1 2.8
2018-Feb-22 19:00N 33°43' W 118°15'1 2.0
2018-Feb-22 18:30N 33°43' W 118°16'1 1.0
2018-Feb-22 17:58N 33°44' W 118°17'0 0.0
2018-Feb-22 17:28N 33°44' W 118°17'0 0.0
2018-Feb-22 16:46N 33°44' W 118°17'0 0.0
2018-Feb-22 16:29N 33°44' W 118°17'0 0.0
2018-Feb-22 15:59N 33°44' W 118°17'0 0.0
2018-Feb-22 15:26N 33°44' W 118°17'0 0.0
2018-Feb-22 15:00N 33°44' W 118°17'0 0.0
2018-Feb-22 01:57N 33°44' W 118°17'0 0.0
2018-Feb-22 01:29N 33°44' W 118°17'0 0.0
2018-Feb-22 00:59N 33°44' W 118°17'0 0.0
2018-Feb-22 00:28N 33°44' W 118°17'0 0.0
2018-Feb-21 23:55N 33°44' W 118°17'0 0.0
2018-Feb-21 23:28N 33°44' W 118°17'0 0.0
2018-Feb-21 22:56N 33°44' W 118°17'0 0.0
2018-Feb-21 22:24N 33°44' W 118°17'0 0.0
2018-Feb-21 21:59N 33°44' W 118°17'0 0.0
2018-Feb-21 21:26N 33°44' W 118°17'0 0.0
2018-Feb-21 20:50N 33°44' W 118°17'0 0.0
2018-Feb-21 20:29N 33°44' W 118°17'0 0.0
2018-Feb-21 20:00N 33°44' W 118°17'0 0.0
2018-Feb-21 19:30N 33°44' W 118°17'0 0.0
2018-Feb-21 18:58N 33°44' W 118°17'0 0.0
2018-Feb-21 18:26N 33°44' W 118°17'0 0.0
2018-Feb-21 17:59N 33°44' W 118°17'0 0.0
2018-Feb-21 17:22N 33°44' W 118°17'0 0.0
2018-Feb-21 17:00N 33°44' W 118°17'0 0.0
2018-Feb-21 16:29N 33°44' W 118°17'0 0.0
2018-Feb-21 15:58N 33°44' W 118°17'0 0.0
2018-Feb-21 15:30N 33°44' W 118°17'0 0.0
2018-Feb-21 14:58N 33°44' W 118°17'0 0.0
2018-Feb-21 14:29N 33°44' W 118°17'0 0.0
2018-Feb-21 01:50N 33°44' W 118°17'0 0.0
2018-Feb-21 01:30N 33°44' W 118°17'0 0.0
2018-Feb-21 00:57N 33°44' W 118°17'0 0.0
2018-Feb-21 00:29N 33°44' W 118°17'0 0.0
2018-Feb-20 23:59N 33°44' W 118°17'0 0.0
2018-Feb-20 23:26N 33°44' W 118°17'0 0.0
2018-Feb-20 22:58N 33°44' W 118°17'0 0.0
2018-Feb-20 22:29N 33°44' W 118°17'0 0.0
2018-Feb-20 22:00N 33°44' W 118°17'0 0.0
2018-Feb-20 21:28N 33°44' W 118°17'0 0.0
2018-Feb-20 20:40N 33°44' W 118°17'0 0.0
2018-Feb-20 20:30N 33°44' W 118°17'0 0.0
2018-Feb-20 20:00N 33°44' W 118°17'0 0.0
2018-Feb-20 19:25N 33°44' W 118°17'0 0.0
2018-Feb-20 18:50N 33°44' W 118°17'0 0.0
2018-Feb-20 18:28N 33°44' W 118°17'0 0.0
2018-Feb-20 17:54N 33°44' W 118°17'0 0.0
2018-Feb-20 17:28N 33°44' W 118°17'0 0.0
2018-Feb-20 16:58N 33°44' W 118°17'0 0.0
2018-Feb-20 16:29N 33°44' W 118°17'0 0.0
2018-Feb-20 15:59N 33°44' W 118°17'0 0.0
2018-Feb-20 15:30N 33°44' W 118°17'0 0.0
2018-Feb-20 14:57N 33°44' W 118°17'0 0.0
2018-Feb-20 14:30N 33°44' W 118°17'0 0.0
2018-Feb-20 01:48N 33°44' W 118°17'0 0.0
2018-Feb-20 01:25N 33°44' W 118°17'0 0.0
2018-Feb-20 00:56N 33°44' W 118°17'0 0.0
2018-Feb-20 00:30N 33°44' W 118°17'0 0.0
2018-Feb-19 23:59N 33°44' W 118°17'0 0.0
2018-Feb-19 23:28N 33°44' W 118°17'0 0.0
2018-Feb-19 22:59N 33°44' W 118°17'0 0.0
2018-Feb-19 22:30N 33°44' W 118°17'0 0.0
2018-Feb-19 22:00N 33°44' W 118°17'0 0.0
2018-Feb-19 21:30N 33°44' W 118°17'0 0.0
2018-Feb-19 21:00N 33°44' W 118°17'0 0.0
2018-Feb-19 20:30N 33°44' W 118°17'1 1.6
2018-Feb-19 20:00N 33°43' W 118°16'2 4.5
2018-Feb-19 19:30N 33°44' W 118°13'1 2.6
2018-Feb-19 19:00N 33°44' W 118°12'2 3.9
2018-Feb-19 18:30N 33°45' W 118°10'0 0.5
2018-Feb-19 17:36N 33°45' W 118°10'0 0.0
2018-Feb-19 14:55N 33°45' W 118°10'6 0.2
2018-Feb-18 02:05N 33°43' W 118°16'0 4.6
2018-Feb-18 01:59N 33°44' W 118°16'0 0.6
2018-Feb-18 01:28N 33°44' W 118°17'0 0.0
2018-Feb-18 00:58N 33°44' W 118°17'0 0.0
2018-Feb-18 00:25N 33°44' W 118°17'0 0.0
2018-Feb-18 00:00N 33°44' W 118°17'0 0.9
2018-Feb-17 23:30N 33°44' W 118°16'3 5.2
2018-Feb-17 23:00N 33°41' W 118°15'0 0.7
2018-Feb-17 22:30N 33°42' W 118°15'2 3.2
2018-Feb-17 22:00N 33°43' W 118°16'0 0.6
2018-Feb-17 21:30N 33°43' W 118°16'0 0.7
2018-Feb-17 21:00N 33°43' W 118°16'1 1.6
2018-Feb-17 20:30N 33°44' W 118°17'0 0.0
2018-Feb-17 19:58N 33°44' W 118°17'0 0.0
2018-Feb-17 19:28N 33°44' W 118°17'0 0.0
2018-Feb-17 18:56N 33°44' W 118°17'0 0.0
2018-Feb-17 18:30N 33°44' W 118°17'0 0.0
2018-Feb-17 17:57N 33°44' W 118°17'0 0.0
2018-Feb-17 17:27N 33°44' W 118°17'0 0.0
2018-Feb-17 16:58N 33°44' W 118°17'0 0.0
2018-Feb-17 16:29N 33°44' W 118°17'0 0.0
2018-Feb-17 15:58N 33°44' W 118°17'0 0.0
2018-Feb-17 15:26N 33°44' W 118°17'0 0.0
2018-Feb-17 14:35N 33°44' W 118°17'0 0.0
2018-Feb-17 01:47N 33°44' W 118°17'0 0.0
2018-Feb-17 01:26N 33°44' W 118°17'0 0.0
2018-Feb-17 00:59N 33°44' W 118°17'0 0.0
2018-Feb-17 00:24N 33°44' W 118°17'0 0.0
2018-Feb-16 23:58N 33°44' W 118°17'0 0.0
2018-Feb-16 23:25N 33°44' W 118°17'0 0.0
2018-Feb-16 22:54N 33°44' W 118°17'0 0.0
2018-Feb-16 22:30N 33°44' W 118°17'0 0.0
2018-Feb-16 21:58N 33°44' W 118°17'0 0.0
2018-Feb-16 21:30N 33°44' W 118°17'0 0.0
2018-Feb-16 21:00N 33°44' W 118°17'0 0.0
2018-Feb-16 20:30N 33°44' W 118°17'1 1.0
2018-Feb-16 20:00N 33°44' W 118°16'2 4.0
2018-Feb-16 19:30N 33°42' W 118°15'0 0.4
2018-Feb-16 19:00N 33°42' W 118°15'2 4.0
2018-Feb-16 18:31N 33°43' W 118°16'1 1.2
2018-Feb-16 17:57N 33°44' W 118°17'0 0.0
2018-Feb-16 17:29N 33°44' W 118°17'0 0.0
2018-Feb-16 16:59N 33°44' W 118°17'0 0.0
2018-Feb-16 16:25N 33°44' W 118°17'0 0.0
2018-Feb-16 16:00N 33°44' W 118°17'0 0.0
2018-Feb-16 15:29N 33°44' W 118°17'0 0.0
2018-Feb-16 14:55N 33°44' W 118°17'0 0.0
2018-Feb-16 01:46N 33°44' W 118°17'0 0.0
2018-Feb-16 01:28N 33°44' W 118°17'0 0.0
2018-Feb-16 01:00N 33°44' W 118°17'0 0.0
2018-Feb-16 00:29N 33°44' W 118°17'0 0.0
2018-Feb-16 00:00N 33°44' W 118°17'0 0.0
2018-Feb-15 23:28N 33°44' W 118°17'0 0.0
2018-Feb-15 22:58N 33°44' W 118°17'0 0.0
2018-Feb-15 22:26N 33°44' W 118°17'0 0.0
2018-Feb-15 21:58N 33°44' W 118°17'0 0.0
2018-Feb-15 21:27N 33°44' W 118°17'0 0.0
2018-Feb-15 20:58N 33°44' W 118°17'0 0.0
2018-Feb-15 20:30N 33°44' W 118°17'0 0.0
2018-Feb-15 20:00N 33°44' W 118°17'0 0.0
2018-Feb-15 19:29N 33°44' W 118°17'0 0.0
2018-Feb-15 18:58N 33°44' W 118°17'0 0.0
2018-Feb-15 18:28N 33°44' W 118°17'0 0.0
2018-Feb-15 17:55N 33°44' W 118°17'0 0.0
2018-Feb-15 17:29N 33°44' W 118°17'0 0.0
2018-Feb-15 16:53N 33°44' W 118°17'0 0.0
2018-Feb-15 16:28N 33°44' W 118°17'0 0.0
2018-Feb-15 15:54N 33°44' W 118°17'0 0.0
2018-Feb-15 15:26N 33°44' W 118°17'0 0.0
2018-Feb-15 14:56N 33°44' W 118°17'0 0.0
2018-Feb-15 01:45N 33°44' W 118°17'  

Dump ship's entire track history